Blanes, Spain
Current Conditions -  °F | °C
As of 7:30 AM on Thursday 27 Nov 2014 (Local Time) from LEGE Reporting Station
Few Clouds Few Clouds  
Wind Chill: 43°   Ceiling: Unl
Heat Index: 43°   Visibility: 4mi
Dew Point: 43°   Wind: 0mph
Humidity: 100%   Direction: NA
Pressure: 29.77"   Gusts: NA
Location:  41.67°N, 2.79°E
Report Text: LEGE 270630Z 00000KT 7000 FEW006 06/06 Q1008
Loading
Personal Weather Stations






























Interactive Weather Map New forecast layout! Learn more

10-Day Weather Forecast

Advertisements
Track Severe Weather on mobile